Pagrindinis puslapis
METAR-TAF:

METAR-TAF

Oro uostai :

Cranfield, Anglija

platuma: 52-04N, ilguma: 000-37W, Aukštis: 111 m

Dabartinis oras

Ataskaita buvo paskelbta 12 valandos ir 38 minutes, ne 17:50 UTC
Vėjas 10 kt iš Vakarų/Šiaurės Vakarų
Temperatūra 5°C
Drėgmė 65%
Slėgis 1008 hPa
Matomumas 10 km arba daugiau
Mažai debesys ne aukštis 4200 ft

METAR: EGTC 271750Z 30010KT 9999 FEW042 05/M01 Q1008

Laikas: 06:28 (06:28 UTC)

Prognozė

Ataskaita buvo paskelbta 16 valandos ir 21 minutes, ne 14:07 UTC
Prognozė galioja nuo 27 metu 15 UTC su 27 metu 19 UTC
Vėjas 18 kt iš Šiaurės Vakarų su gūsio iki 28 kt
Matomumas 10 km arba daugiau
Mažai debesys ne aukštis 2500 ft
Tapsmas
nuo 27 metu 17 UTC su 27 metu 19 UTC
Vėjas 8 kt iš Vakarų

TAF: EGTC 271407Z 2715/2719 31018G28KT 9999 FEW025 BECMG 2717/2719 28008KT

Orai ataskaitas ir orų prognozės (METAR, TAF).

turimą stotys yra geltonos ir raudonos taškus žemėlapyje.

Perkelti pele per norėdami pamatyti stoties vardą.

Tada spustelėkite, norėdami matyti oro stebėjimo ir prognozės.

Norėdami pakeisti žemėlapį: spustelėkite ant žalios mygtukų su juodo kryžiaus žemyn,; žalią mygtuką su brūkšneliu, jei norite nutolinti; arba žalių rodyklių gretimoms žemėlapius.


METAR-TAF: